Time;durP1;ratioP1;P1;durP2;ratioP2;P2;SDS_P1;SDS_P2;PMS_P1;PMS_P2;Temp;Humidity;BMP_temperature;BMP_pressure;BME280_temperature;BME280_humidity;BME280_pressure;Samples;Min_cycle;Max_cycle;Signal;HPM_P1;HPM_P2
2024/03/31 00:00:04;;;;;;;45.70;40.93;;;12.30;99.90;;;;;;5021852;28;20847;-71
2024/03/31 00:02:31;;;;;;;46.50;41.73;;;12.30;99.90;;;;;;5025528;28;20464;-71
2024/03/31 00:04:57;;;;;;;47.13;42.37;;;12.20;99.90;;;;;;5022186;28;20467;-71
2024/03/31 00:07:24;;;;;;;48.43;43.80;;;12.20;99.90;;;;;;5024509;28;20464;-71
2024/03/31 00:09:52;;;;;;;46.70;42.10;;;12.20;99.90;;;;;;5023424;28;20490;-70
2024/03/31 00:12:19;;;;;;;49.47;44.63;;;12.10;99.90;;;;;;5019880;28;20552;-71
2024/03/31 00:14:45;;;;;;;46.77;42.03;;;12.10;99.90;;;;;;5024877;28;20475;-71
2024/03/31 00:17:13;;;;;;;47.63;42.73;;;12.10;99.90;;;;;;5023235;28;20503;-70
2024/03/31 00:19:39;;;;;;;46.70;41.97;;;12.00;99.90;;;;;;5016314;28;20464;-71
2024/03/31 00:22:06;;;;;;;45.87;41.40;;;12.00;99.90;;;;;;5021731;28;20471;-71
2024/03/31 00:24:32;;;;;;;41.50;37.23;;;12.00;99.90;;;;;;5026314;28;20498;-71
2024/03/31 00:27:00;;;;;;;42.23;37.83;;;11.90;99.90;;;;;;5023891;28;20478;-71
2024/03/31 00:29:26;;;;;;;36.83;33.23;;;11.90;99.90;;;;;;5021913;28;20494;-71
2024/03/31 00:31:53;;;;;;;40.03;36.13;;;11.80;99.90;;;;;;5020991;28;20533;-71
2024/03/31 00:34:22;;;;;;;40.30;36.27;;;11.80;99.90;;;;;;5024773;28;20579;-71
2024/03/31 00:36:49;;;;;;;41.50;37.10;;;11.80;99.90;;;;;;5023191;28;20492;-71
2024/03/31 00:39:16;;;;;;;36.27;32.70;;;11.80;99.90;;;;;;5021444;28;20474;-71
2024/03/31 00:41:43;;;;;;;34.23;30.93;;;11.70;99.90;;;;;;5024557;28;20904;-70
2024/03/31 00:44:11;;;;;;;29.63;26.53;;;11.70;99.90;;;;;;5024705;28;20498;-71
2024/03/31 00:46:38;;;;;;;25.00;22.60;;;11.60;99.90;;;;;;5022967;28;20468;-70
2024/03/31 00:49:04;;;;;;;23.77;21.40;;;11.60;99.90;;;;;;5024104;28;20494;-71
2024/03/31 00:51:32;;;;;;;21.73;19.53;;;11.60;99.90;;;;;;5024086;28;20493;-71
2024/03/31 00:53:58;;;;;;;20.40;18.50;;;11.50;99.90;;;;;;5015712;28;20483;-70
2024/03/31 00:56:25;;;;;;;18.47;16.70;;;11.50;99.90;;;;;;5024377;28;20521;-70
2024/03/31 00:58:51;;;;;;;17.43;15.83;;;11.50;99.90;;;;;;5023768;28;20498;-71
2024/03/31 01:01:20;;;;;;;17.57;15.87;;;11.40;99.90;;;;;;5015880;28;20487;-71
2024/03/31 01:03:46;;;;;;;17.63;16.00;;;11.40;99.90;;;;;;5023073;28;20500;-71
2024/03/31 01:06:16;;;;;;;17.90;16.00;;;11.40;99.90;;;;;;5022941;28;20472;-71
2024/03/31 01:08:43;;;;;;;17.50;15.90;;;11.30;99.90;;;;;;5024543;28;20475;-70
2024/03/31 01:11:10;;;;;;;16.17;14.67;;;11.30;99.90;;;;;;5022534;28;20484;-70
2024/03/31 01:13:36;;;;;;;16.13;14.63;;;11.30;99.90;;;;;;5019997;28;20490;-70
2024/03/31 01:16:04;;;;;;;16.50;14.93;;;11.20;99.90;;;;;;5024841;28;20471;-71
2024/03/31 01:18:32;;;;;;;16.47;14.97;;;11.20;99.90;;;;;;5021335;28;20992;-70
2024/03/31 01:20:59;;;;;;;16.73;15.20;;;11.20;99.90;;;;;;5037382;28;20541;-70
2024/03/31 01:23:29;;;;;;;17.63;15.67;;;11.10;99.90;;;;;;5023103;28;20564;-70
2024/03/31 01:26:01;;;;;;;18.70;16.90;;;11.10;99.90;;;;;;5024339;28;20548;-71
2024/03/31 01:28:27;;;;;;;17.77;16.07;;;11.00;99.90;;;;;;5014595;28;20971;-70
2024/03/31 01:30:54;;;;;;;20.70;17.00;;;11.00;99.90;;;;;;5021262;28;20463;-70
2024/03/31 01:33:20;;;;;;;19.70;17.70;;;11.00;99.90;;;;;;5022611;28;20557;-71
2024/03/31 01:35:47;;;;;;;20.43;18.20;;;11.00;99.90;;;;;;5024145;28;20476;-71
2024/03/31 01:38:13;;;;;;;20.20;18.20;;;10.90;99.90;;;;;;5016655;28;20974;-72
2024/03/31 01:40:40;;;;;;;20.17;18.00;;;10.90;99.90;;;;;;5021498;28;20501;-71
2024/03/31 01:43:08;;;;;;;18.83;17.00;;;10.90;99.90;;;;;;5021697;28;20494;-71
2024/03/31 01:45:35;;;;;;;19.47;17.60;;;10.80;99.90;;;;;;5024832;28;20530;-71
2024/03/31 01:48:01;;;;;;;19.23;17.20;;;10.80;99.90;;;;;;5024434;28;20540;-71
2024/03/31 01:50:28;;;;;;;19.33;17.43;;;10.80;99.90;;;;;;5014286;28;20478;-71
2024/03/31 01:52:54;;;;;;;21.43;19.20;;;10.80;99.90;;;;;;5020518;28;20487;-71
2024/03/31 01:55:21;;;;;;;20.93;18.93;;;10.70;99.90;;;;;;5027341;28;20477;-71
2024/03/31 01:57:47;;;;;;;21.73;19.47;;;10.70;99.90;;;;;;5026986;28;20491;-71
2024/03/31 02:00:16;;;;;;;23.13;20.70;;;10.70;99.90;;;;;;5025097;28;20479;-70
2024/03/31 02:02:42;;;;;;;22.47;20.27;;;10.60;99.90;;;;;;5044874;28;20483;-70
2024/03/31 02:05:09;;;;;;;22.57;20.17;;;10.60;99.90;;;;;;5025753;28;20464;-70
2024/03/31 02:07:35;;;;;;;21.17;19.03;;;10.60;99.90;;;;;;5026244;28;20471;-70
2024/03/31 02:10:02;;;;;;;21.07;18.97;;;10.60;99.90;;;;;;5016994;28;20471;-70
2024/03/31 02:12:28;;;;;;;20.90;18.43;;;10.50;99.90;;;;;;5017655;28;20921;-70
2024/03/31 02:14:55;;;;;;;21.67;19.37;;;10.50;99.90;;;;;;5019748;28;20849;-70
2024/03/31 02:17:23;;;;;;;21.03;18.33;;;10.50;99.90;;;;;;5025037;28;20487;-70
2024/03/31 02:19:50;;;;;;;22.60;19.70;;;10.40;99.90;;;;;;5029048;28;20482;-70
2024/03/31 02:22:17;;;;;;;21.07;18.83;;;10.40;99.90;;;;;;5041467;28;20524;-70
2024/03/31 02:24:44;;;;;;;21.83;19.57;;;10.40;99.90;;;;;;5046803;28;20564;-71
2024/03/31 02:27:10;;;;;;;19.00;17.00;;;10.30;99.90;;;;;;5042027;28;20892;-70
2024/03/31 02:29:38;;;;;;;20.33;18.20;;;10.30;99.90;;;;;;5045506;28;20459;-71
2024/03/31 02:32:04;;;;;;;21.40;18.13;;;10.20;99.90;;;;;;5043876;28;20459;-70
2024/03/31 02:34:33;;;;;;;21.13;18.50;;;10.20;99.90;;;;;;5046460;28;20521;-71
2024/03/31 02:36:59;;;;;;;18.80;16.80;;;10.20;99.90;;;;;;5037668;28;21237;-71
2024/03/31 02:39:26;;;;;;;17.87;15.97;;;10.10;99.90;;;;;;5037694;28;20474;-70
2024/03/31 02:41:53;;;;;;;19.60;17.50;;;10.10;99.90;;;;;;5044428;28;20473;-70
2024/03/31 02:44:20;;;;;;;19.03;16.90;;;10.10;99.90;;;;;;5045852;28;20493;-70
2024/03/31 02:46:47;;;;;;;22.37;17.13;;;10.10;99.90;;;;;;5046569;28;20482;-71
2024/03/31 02:49:14;;;;;;;20.47;17.13;;;10.00;99.90;;;;;;5042391;28;20986;-71
2024/03/31 02:51:41;;;;;;;21.60;17.47;;;10.00;99.90;;;;;;5045866;28;20482;-70
2024/03/31 02:54:08;;;;;;;24.10;17.70;;;10.00;99.90;;;;;;5044855;28;20491;-71
2024/03/31 02:56:34;;;;;;;21.40;16.50;;;10.00;99.90;;;;;;5045319;28;20466;-70
2024/03/31 02:59:01;;;;;;;20.87;17.23;;;9.90;99.90;;;;;;5043646;28;20487;-70
2024/03/31 03:01:27;;;;;;;22.20;19.00;;;10.00;99.90;;;;;;5046641;28;20471;-70
2024/03/31 03:03:54;;;;;;;19.73;17.07;;;9.90;99.90;;;;;;5044626;28;20486;-70
2024/03/31 03:06:21;;;;;;;22.27;16.90;;;9.90;99.90;;;;;;5043431;28;20466;-70
2024/03/31 03:08:49;;;;;;;21.70;16.20;;;9.90;99.90;;;;;;5046562;28;20467;-70
2024/03/31 03:11:15;;;;;;;22.13;16.77;;;9.90;99.90;;;;;;5029482;28;20553;-70
2024/03/31 03:13:43;;;;;;;20.47;16.17;;;9.90;99.90;;;;;;5025195;28;20502;-70
2024/03/31 03:16:10;;;;;;;22.83;16.77;;;9.90;99.90;;;;;;5025378;28;20471;-70
2024/03/31 03:18:37;;;;;;;20.63;16.50;;;9.80;99.90;;;;;;5025389;28;20486;-71
2024/03/31 03:21:03;;;;;;;21.07;16.33;;;9.90;99.90;;;;;;5017816;28;20853;-70
2024/03/31 03:23:31;;;;;;;16.97;14.80;;;9.90;99.90;;;;;;5023326;28;20483;-71
2024/03/31 03:25:59;;;;;;;21.93;15.50;;;9.90;99.90;;;;;;5018402;28;20467;-71
2024/03/31 03:28:27;;;;;;;18.70;15.37;;;9.80;99.90;;;;;;5025529;28;20459;-70
2024/03/31 03:30:53;;;;;;;22.63;15.10;;;9.80;99.90;;;;;;5022410;28;20487;-70
2024/03/31 03:33:20;;;;;;;23.33;15.13;;;9.80;99.90;;;;;;5022786;28;20495;-70
2024/03/31 03:35:46;;;;;;;21.73;16.43;;;9.80;99.90;;;;;;5025017;28;20482;-70
2024/03/31 03:38:13;;;;;;;18.90;15.60;;;9.80;99.90;;;;;;5023913;28;21190;-70
2024/03/31 03:40:40;;;;;;;20.07;16.20;;;9.80;99.90;;;;;;5015324;28;21028;-70
2024/03/31 03:43:09;;;;;;;27.10;17.17;;;9.80;99.90;;;;;;5018579;28;20483;-71
2024/03/31 03:45:35;;;;;;;18.73;16.50;;;9.80;99.90;;;;;;5022803;28;20483;-71
2024/03/31 03:48:03;;;;;;;21.10;16.80;;;9.70;99.90;;;;;;5022035;28;20976;-70
2024/03/31 03:50:30;;;;;;;21.73;16.70;;;9.70;99.90;;;;;;5024117;28;21061;-71
2024/03/31 03:52:56;;;;;;;21.40;17.13;;;9.70;99.90;;;;;;5018011;28;20545;-71
2024/03/31 03:55:23;;;;;;;21.30;16.67;;;9.70;99.90;;;;;;5022486;28;20479;-72
2024/03/31 03:57:49;;;;;;;22.83;16.97;;;9.70;99.90;;;;;;5019574;28;20495;-70
2024/03/31 04:00:17;;;;;;;22.40;17.50;;;9.70;99.90;;;;;;5021759;28;20490;-71
2024/03/31 04:02:43;;;;;;;20.67;17.60;;;9.60;99.90;;;;;;5023334;28;20499;-71
2024/03/31 04:05:10;;;;;;;20.17;17.37;;;9.60;99.90;;;;;;5023972;28;20471;-70
2024/03/31 04:07:36;;;;;;;22.40;17.40;;;9.60;99.90;;;;;;5024738;28;20530;-70
2024/03/31 04:10:04;;;;;;;24.43;18.00;;;9.60;99.90;;;;;;5021567;28;20851;-70
2024/03/31 04:12:30;;;;;;;24.00;17.60;;;9.60;99.90;;;;;;5023537;28;20540;-70
2024/03/31 04:14:57;;;;;;;20.70;17.67;;;9.60;99.90;;;;;;5018713;28;20474;-70
2024/03/31 04:17:24;;;;;;;23.87;17.03;;;9.60;99.90;;;;;;5023899;28;20491;-70
2024/03/31 04:19:51;;;;;;;20.30;16.20;;;9.60;99.90;;;;;;5022539;28;20486;-70
2024/03/31 04:22:17;;;;;;;21.50;17.13;;;9.60;99.90;;;;;;5013625;28;20526;-70
2024/03/31 04:24:44;;;;;;;21.33;17.20;;;9.70;99.90;;;;;;5023672;28;20495;-71
2024/03/31 04:27:10;;;;;;;21.70;16.57;;;9.60;99.90;;;;;;5025160;28;20476;-71
2024/03/31 04:29:37;;;;;;;16.57;14.83;;;9.60;99.90;;;;;;5024629;28;20486;-70
2024/03/31 04:32:04;;;;;;;15.00;13.40;;;9.60;99.90;;;;;;5020447;28;20868;-70
2024/03/31 04:34:32;;;;;;;15.30;13.70;;;9.60;99.90;;;;;;5025532;28;20494;-71
2024/03/31 04:36:58;;;;;;;15.63;13.70;;;9.60;99.90;;;;;;5022583;28;20474;-70
2024/03/31 04:39:25;;;;;;;16.10;13.80;;;9.60;99.90;;;;;;5024266;28;20487;-70
2024/03/31 04:41:52;;;;;;;15.37;13.77;;;9.60;99.90;;;;;;5021973;28;20467;-71
2024/03/31 04:44:19;;;;;;;13.97;12.50;;;9.60;99.90;;;;;;5024352;28;20483;-70
2024/03/31 04:46:49;;;;;;;17.40;13.80;;;9.60;99.90;;;;;;5025728;28;20836;-71
2024/03/31 04:49:16;;;;;;;14.50;13.00;;;9.60;99.90;;;;;;5009125;28;20479;-70
2024/03/31 04:51:44;;;;;;;15.77;13.70;;;9.60;99.90;;;;;;5021085;28;20479;-71
2024/03/31 04:54:11;;;;;;;15.00;13.50;;;9.50;99.90;;;;;;5021857;28;20502;-70
2024/03/31 04:56:37;;;;;;;14.83;13.23;;;9.50;99.90;;;;;;5015349;28;20487;-71
2024/03/31 04:59:04;;;;;;;17.20;13.30;;;9.60;99.90;;;;;;5021356;28;20487;-70
2024/03/31 05:01:30;;;;;;;14.70;13.10;;;9.60;99.90;;;;;;5022346;28;20471;-70
2024/03/31 05:03:57;;;;;;;15.30;13.37;;;9.50;99.90;;;;;;5023837;28;21071;-70
2024/03/31 05:06:23;;;;;;;15.20;12.73;;;9.60;99.90;;;;;;5024827;28;20471;-71
2024/03/31 05:08:51;;;;;;;15.87;12.20;;;9.60;99.90;;;;;;5023289;28;20471;-71
2024/03/31 05:11:17;;;;;;;13.20;11.40;;;9.50;99.90;;;;;;5023214;28;20478;-70
2024/03/31 05:13:45;;;;;;;13.90;12.13;;;9.60;99.90;;;;;;5018464;28;21024;-71
2024/03/31 05:16:11;;;;;;;14.90;12.03;;;9.60;99.90;;;;;;5024141;28;20491;-70
2024/03/31 05:18:38;;;;;;;14.93;13.00;;;9.60;99.90;;;;;;5023588;28;20491;-70
2024/03/31 05:21:06;;;;;;;14.60;12.00;;;9.60;99.90;;;;;;5025770;28;20470;-70
2024/03/31 05:23:34;;;;;;;13.97;11.87;;;9.60;99.90;;;;;;5027851;28;20487;-71
2024/03/31 05:26:02;;;;;;;13.13;11.43;;;9.60;99.90;;;;;;5028385;28;20851;-70
2024/03/31 05:28:29;;;;;;;13.43;12.00;;;9.60;99.90;;;;;;5028458;28;20471;-71
2024/03/31 05:30:55;;;;;;;14.77;13.00;;;9.60;99.90;;;;;;5021732;28;20494;-70
2024/03/31 05:33:22;;;;;;;15.40;13.17;;;9.60;99.90;;;;;;5026627;28;20483;-71
2024/03/31 05:35:48;;;;;;;15.10;12.93;;;9.60;99.90;;;;;;5020616;28;20550;-70
2024/03/31 05:38:17;;;;;;;15.53;13.17;;;9.60;99.90;;;;;;5027390;28;20922;-70
2024/03/31 05:40:44;;;;;;;16.73;13.90;;;9.60;99.90;;;;;;5022458;28;20494;-71
2024/03/31 05:43:13;;;;;;;15.33;12.57;;;9.60;99.90;;;;;;5027659;28;20502;-70
2024/03/31 05:45:40;;;;;;;14.93;13.00;;;9.60;99.90;;;;;;5021031;28;20471;-71
2024/03/31 05:48:09;;;;;;;16.70;13.07;;;9.60;99.90;;;;;;5020186;28;20890;-71
2024/03/31 05:50:35;;;;;;;14.47;12.80;;;9.70;99.90;;;;;;5026848;28;21043;-71
2024/03/31 05:53:03;;;;;;;15.13;13.23;;;9.70;99.90;;;;;;5025745;28;20513;-70
2024/03/31 05:55:29;;;;;;;15.70;12.97;;;9.70;99.90;;;;;;5028017;28;20468;-71
2024/03/31 05:57:56;;;;;;;13.47;12.10;;;9.70;99.90;;;;;;5024086;28;20495;-70
2024/03/31 06:00:25;;;;;;;13.40;11.80;;;9.60;99.90;;;;;;5025151;28;20537;-70
2024/03/31 06:02:52;;;;;;;14.37;12.93;;;9.60;99.90;;;;;;5027273;28;21023;-73
2024/03/31 06:05:18;;;;;;;13.83;12.40;;;9.70;99.90;;;;;;5025257;28;20471;-71
2024/03/31 06:07:48;;;;;;;15.60;12.80;;;9.60;99.90;;;;;;5027733;28;20483;-71
2024/03/31 06:10:14;;;;;;;13.10;11.70;;;9.60;99.90;;;;;;5025138;28;20483;-72
2024/03/31 06:12:41;;;;;;;14.80;13.27;;;9.60;99.90;;;;;;5024517;28;20476;-72
2024/03/31 06:15:08;;;;;;;13.23;11.93;;;9.60;99.90;;;;;;5025462;28;20463;-71
2024/03/31 06:17:39;;;;;;;18.03;12.00;;;9.60;99.90;;;;;;5017271;28;20870;-71
2024/03/31 06:20:07;;;;;;;14.33;12.63;;;9.60;99.90;;;;;;5023828;28;20472;-71
2024/03/31 06:22:38;;;;;;;15.00;13.50;;;9.60;99.90;;;;;;5025690;28;20795;-71
2024/03/31 06:25:04;;;;;;;13.13;11.80;;;9.60;99.90;;;;;;5027538;28;20472;-71
2024/03/31 06:27:31;;;;;;;12.40;11.20;;;9.60;99.90;;;;;;5024787;28;20553;-71
2024/03/31 06:29:58;;;;;;;15.17;13.57;;;9.60;99.90;;;;;;5017344;28;20480;-71
2024/03/31 06:32:25;;;;;;;13.20;11.80;;;9.60;99.90;;;;;;5024387;28;20529;-71
2024/03/31 06:34:52;;;;;;;14.40;12.90;;;9.60;99.90;;;;;;5024594;28;20502;-71
2024/03/31 06:37:19;;;;;;;16.13;12.37;;;9.70;99.90;;;;;;5026688;28;20472;-71
2024/03/31 06:39:46;;;;;;;13.57;12.20;;;9.60;99.90;;;;;;5025419;28;20901;-71
2024/03/31 06:42:15;;;;;;;13.53;12.07;;;9.70;99.90;;;;;;5025884;28;20484;-71
2024/03/31 06:44:42;;;;;;;14.43;12.93;;;9.70;99.90;;;;;;5027321;28;20510;-71
2024/03/31 06:47:09;;;;;;;13.00;11.60;;;9.70;99.90;;;;;;5024059;28;20506;-71
2024/03/31 06:49:35;;;;;;;12.17;11.07;;;9.70;99.90;;;;;;5025442;28;20518;-71
2024/03/31 06:52:04;;;;;;;12.50;10.97;;;9.70;99.90;;;;;;5025145;28;20470;-71
2024/03/31 06:54:30;;;;;;;12.97;11.60;;;9.70;99.90;;;;;;5016437;28;20996;-71
2024/03/31 06:56:57;;;;;;;13.30;12.00;;;9.70;99.90;;;;;;5026337;28;20494;-71
2024/03/31 06:59:23;;;;;;;13.00;11.70;;;9.70;99.90;;;;;;5026997;28;20549;-71
2024/03/31 07:01:51;;;;;;;13.67;12.30;;;9.70;99.90;;;;;;5018125;28;21044;-71
2024/03/31 07:04:18;;;;;;;12.50;11.20;;;9.80;99.90;;;;;;5023392;28;21022;-71
2024/03/31 07:06:45;;;;;;;12.43;11.23;;;9.70;99.90;;;;;;5026700;28;20513;-71
2024/03/31 07:09:14;;;;;;;13.03;11.70;;;9.80;99.90;;;;;;5023949;28;20487;-71
2024/03/31 07:11:40;;;;;;;12.37;11.10;;;9.80;99.90;;;;;;5035288;28;20908;-71
2024/03/31 07:14:07;;;;;;;12.30;11.10;;;9.80;99.90;;;;;;5044388;28;20560;-71
2024/03/31 07:16:33;;;;;;;11.27;10.10;;;9.80;99.90;;;;;;5045960;28;20475;-71
2024/03/31 07:19:00;;;;;;;11.80;10.37;;;9.80;99.90;;;;;;5042501;28;20987;-71
2024/03/31 07:21:26;;;;;;;12.20;10.67;;;9.80;99.90;;;;;;5042494;28;20483;-71
2024/03/31 07:23:53;;;;;;;12.93;11.63;;;9.80;99.90;;;;;;5043817;28;20493;-71
2024/03/31 07:26:21;;;;;;;11.77;10.67;;;9.80;99.90;;;;;;5045570;28;20520;-71
2024/03/31 07:28:48;;;;;;;11.30;10.20;;;9.80;99.90;;;;;;5046213;28;20467;-71
2024/03/31 07:31:14;;;;;;;11.70;10.50;;;9.80;99.90;;;;;;5041868;28;21158;-71
2024/03/31 07:33:41;;;;;;;12.97;11.07;;;9.80;99.90;;;;;;5045190;28;21033;-71
2024/03/31 07:36:07;;;;;;;12.27;10.70;;;9.80;99.90;;;;;;5043875;28;20466;-71
2024/03/31 07:38:34;;;;;;;11.60;10.50;;;9.80;99.90;;;;;;5045146;28;20489;-71
2024/03/31 07:41:00;;;;;;;12.93;11.50;;;9.80;99.90;;;;;;5036225;28;21015;-71
2024/03/31 07:43:28;;;;;;;11.90;10.50;;;9.80;99.90;;;;;;5041730;28;20489;-71
2024/03/31 07:45:54;;;;;;;13.10;11.70;;;9.80;99.90;;;;;;5037313;28;20829;-71
2024/03/31 07:48:21;;;;;;;12.17;10.87;;;9.80;99.90;;;;;;5040908;28;20896;-71
2024/03/31 07:50:48;;;;;;;12.17;10.90;;;9.80;99.90;;;;;;5030208;28;20475;-71
2024/03/31 07:53:15;;;;;;;13.00;11.00;;;9.80;99.90;;;;;;5024639;28;20487;-71
2024/03/31 07:55:41;;;;;;;12.97;11.67;;;9.80;99.90;;;;;;5019764;28;20509;-72
2024/03/31 07:58:08;;;;;;;13.03;11.60;;;9.80;99.90;;;;;;5022702;28;21007;-71
2024/03/31 08:00:35;;;;;;;11.67;10.47;;;9.80;99.90;;;;;;5032703;28;20478;-71
2024/03/31 08:03:02;;;;;;;12.17;10.97;;;9.80;99.90;;;;;;5044091;28;20498;-71
2024/03/31 08:05:29;;;;;;;15.30;11.70;;;9.80;99.90;;;;;;5042135;28;20810;-71
2024/03/31 08:07:56;;;;;;;11.37;10.27;;;9.80;99.90;;;;;;5043722;28;20470;-71
2024/03/31 08:10:22;;;;;;;11.80;10.30;;;9.80;99.90;;;;;;5036267;28;20479;-71
2024/03/31 08:12:49;;;;;;;10.93;9.80;;;9.80;99.90;;;;;;5022907;28;20577;-72
2024/03/31 08:15:15;;;;;;;12.30;10.57;;;9.80;99.90;;;;;;5023247;28;20479;-71
2024/03/31 08:17:44;;;;;;;12.40;11.13;;;9.80;99.90;;;;;;5025155;28;20475;-71
2024/03/31 08:20:10;;;;;;;11.83;10.30;;;9.80;99.90;;;;;;5012245;28;20472;-71
2024/03/31 08:22:37;;;;;;;12.73;11.43;;;9.80;99.90;;;;;;5020435;28;20467;-71
2024/03/31 08:25:03;;;;;;;11.80;10.60;;;9.80;99.90;;;;;;5023701;28;20503;-71
2024/03/31 08:27:30;;;;;;;12.50;11.20;;;9.80;99.90;;;;;;5025584;28;20467;-71
2024/03/31 08:29:56;;;;;;;12.90;10.60;;;9.80;99.90;;;;;;5022077;28;20471;-71
2024/03/31 08:32:23;;;;;;;11.97;10.83;;;9.80;99.90;;;;;;5022551;28;20969;-71
2024/03/31 08:34:51;;;;;;;14.40;12.87;;;9.90;99.90;;;;;;5023989;28;20498;-71
2024/03/31 08:37:18;;;;;;;13.30;12.00;;;9.80;99.90;;;;;;5025189;28;20820;-71
2024/03/31 08:39:44;;;;;;;12.23;11.03;;;9.80;99.90;;;;;;5022649;28;20521;-71
2024/03/31 08:42:18;;;;;;;12.93;11.53;;;9.90;99.90;;;;;;5024199;28;20472;-71
2024/03/31 08:44:47;;;;;;;12.90;10.90;;;9.80;99.90;;;;;;5024899;28;20995;-71
2024/03/31 08:47:19;;;;;;;14.57;12.07;;;9.90;99.90;;;;;;5023655;28;20478;-71
2024/03/31 08:49:46;;;;;;;12.70;11.20;;;9.90;99.90;;;;;;5023298;28;20471;-71
2024/03/31 08:52:16;;;;;;;13.30;11.70;;;9.90;99.90;;;;;;5023605;28;21136;-71
2024/03/31 08:54:44;;;;;;;14.00;12.60;;;9.90;99.90;;;;;;5026265;28;20825;-71
2024/03/31 08:57:11;;;;;;;12.93;11.63;;;9.90;99.90;;;;;;5026048;28;20476;-71
2024/03/31 08:59:38;;;;;;;13.93;12.40;;;10.00;99.90;;;;;;5027093;28;20487;-72
2024/03/31 09:02:06;;;;;;;14.13;12.20;;;10.00;99.90;;;;;;5026840;28;20478;-71
2024/03/31 09:04:32;;;;;;;12.73;11.43;;;10.00;99.90;;;;;;5028989;28;20491;-71
2024/03/31 09:06:59;;;;;;;14.03;12.23;;;10.00;99.90;;;;;;5026616;28;20475;-71
2024/03/31 09:09:27;;;;;;;15.03;12.83;;;9.90;99.90;;;;;;5025768;28;20464;-71
2024/03/31 09:11:54;;;;;;;15.80;12.50;;;9.90;99.90;;;;;;5044003;28;20471;-71
2024/03/31 09:14:20;;;;;;;14.53;12.43;;;10.00;99.90;;;;;;5025666;28;20892;-71
2024/03/31 09:16:47;;;;;;;13.13;11.83;;;9.90;99.90;;;;;;5020526;28;20471;-71
2024/03/31 09:19:13;;;;;;;14.70;12.23;;;9.90;99.90;;;;;;5026689;28;21125;-71
2024/03/31 09:21:45;;;;;;;14.83;13.20;;;9.90;99.90;;;;;;5020079;28;20491;-71
2024/03/31 09:24:12;;;;;;;14.83;12.43;;;9.90;99.90;;;;;;5020753;28;20491;-71
2024/03/31 09:26:40;;;;;;;13.70;12.20;;;9.90;99.90;;;;;;5028406;28;20976;-71
2024/03/31 09:29:08;;;;;;;14.57;12.67;;;10.00;99.90;;;;;;5028057;28;20897;-71
2024/03/31 09:31:35;;;;;;;15.10;12.20;;;10.00;99.90;;;;;;5026401;28;20486;-71
2024/03/31 09:34:01;;;;;;;13.37;11.93;;;10.00;99.90;;;;;;5024357;28;20487;-71
2024/03/31 09:36:28;;;;;;;13.23;11.77;;;10.00;99.90;;;;;;5028422;28;20983;-72
2024/03/31 09:38:54;;;;;;;13.70;12.30;;;10.00;99.90;;;;;;5026003;28;20487;-71
2024/03/31 09:41:22;;;;;;;12.93;11.60;;;10.00;99.90;;;;;;5023406;28;20513;-71
2024/03/31 09:43:50;;;;;;;14.67;12.00;;;10.00;99.90;;;;;;5026169;28;21089;-71
2024/03/31 09:46:17;;;;;;;13.53;12.10;;;10.10;99.90;;;;;;5028052;28;20475;-71
2024/03/31 09:48:48;;;;;;;15.60;12.67;;;10.00;99.90;;;;;;5028396;28;20545;-71
2024/03/31 09:51:20;;;;;;;16.47;13.10;;;10.10;99.90;;;;;;5016287;28;20491;-71
2024/03/31 09:53:54;;;;;;;15.80;13.20;;;10.10;99.90;;;;;;5027003;28;20519;-71
2024/03/31 09:56:25;;;;;;;14.90;13.30;;;10.10;99.90;;;;;;5027400;28;20471;-71
2024/03/31 09:58:56;;;;;;;16.07;12.80;;;10.10;99.90;;;;;;5024895;28;20487;-71
2024/03/31 10:01:24;;;;;;;14.40;12.43;;;10.20;99.90;;;;;;5023972;28;20479;-71
2024/03/31 10:03:55;;;;;;;14.73;13.13;;;10.20;99.90;;;;;;5026346;28;20483;-71
2024/03/31 10:06:23;;;;;;;15.63;13.07;;;10.20;99.90;;;;;;5026580;28;20467;-72
2024/03/31 10:08:50;;;;;;;15.27;12.47;;;10.10;99.90;;;;;;5025908;28;20952;-71
2024/03/31 10:11:19;;;;;;;15.80;11.93;;;10.10;99.90;;;;;;5025027;28;20536;-71
2024/03/31 10:13:46;;;;;;;14.33;12.83;;;10.20;99.90;;;;;;5028237;28;20487;-71
2024/03/31 10:16:15;;;;;;;15.77;13.40;;;10.20;99.90;;;;;;5024908;28;20841;-71
2024/03/31 10:18:43;;;;;;;14.90;12.90;;;10.20;99.90;;;;;;5024820;28;20998;-71
2024/03/31 10:21:11;;;;;;;14.30;12.10;;;10.20;99.90;;;;;;5020152;28;20494;-72
2024/03/31 10:23:39;;;;;;;14.03;12.60;;;10.20;99.90;;;;;;5027779;28;20562;-72
2024/03/31 10:26:07;;;;;;;14.20;12.23;;;10.20;99.90;;;;;;5019302;28;20480;-72
2024/03/31 10:28:34;;;;;;;15.23;12.83;;;10.20;99.90;;;;;;5026454;28;20467;-72
2024/03/31 10:31:02;;;;;;;14.47;12.60;;;10.20;99.90;;;;;;5023638;28;20479;-73
2024/03/31 10:33:31;;;;;;;14.20;12.70;;;10.30;99.90;;;;;;5025412;28;20487;-72
2024/03/31 10:35:58;;;;;;;13.77;12.20;;;10.30;99.90;;;;;;5025007;28;20824;-72
2024/03/31 10:38:25;;;;;;;13.03;11.67;;;10.30;99.90;;;;;;5017818;28;20460;-73
2024/03/31 10:40:52;;;;;;;13.70;12.30;;;10.30;99.90;;;;;;5025679;28;20487;-73
2024/03/31 10:43:19;;;;;;;14.23;12.73;;;10.30;99.90;;;;;;5026211;28;20499;-72
2024/03/31 10:45:46;;;;;;;14.23;12.73;;;10.30;99.90;;;;;;5026071;28;20469;-73
2024/03/31 10:48:13;;;;;;;15.20;13.13;;;10.30;99.90;;;;;;5025965;28;20473;-72
2024/03/31 10:50:44;;;;;;;14.23;12.57;;;10.40;99.90;;;;;;5024407;28;20566;-72
2024/03/31 10:53:10;;;;;;;14.23;12.73;;;10.40;99.90;;;;;;5025618;28;20848;-72
2024/03/31 10:55:43;;;;;;;15.93;14.00;;;10.40;99.90;;;;;;5023219;28;20545;-72
2024/03/31 10:58:14;;;;;;;14.70;13.20;;;10.40;99.90;;;;;;5026993;28;21125;-73
2024/03/31 11:00:43;;;;;;;13.50;12.13;;;10.40;99.90;;;;;;5025625;28;20487;-72
2024/03/31 11:03:10;;;;;;;14.10;12.63;;;10.40;99.90;;;;;;5024913;28;20925;-72
2024/03/31 11:05:39;;;;;;;14.40;12.93;;;10.50;99.90;;;;;;5023539;28;20509;-72
2024/03/31 11:08:08;;;;;;;13.00;11.70;;;10.50;99.90;;;;;;5025259;28;20474;-72
2024/03/31 11:10:36;;;;;;;15.13;13.37;;;10.50;99.90;;;;;;5025080;28;20476;-72
2024/03/31 11:13:04;;;;;;;15.47;13.97;;;10.60;99.90;;;;;;5020737;28;20499;-72
2024/03/31 11:15:32;;;;;;;14.47;13.03;;;10.60;99.90;;;;;;5027140;28;20952;-72
2024/03/31 11:17:59;;;;;;;14.17;12.77;;;10.60;99.90;;;;;;5031783;28;20467;-72
2024/03/31 11:20:25;;;;;;;15.10;13.60;;;10.70;99.90;;;;;;5028292;28;20988;-72
2024/03/31 11:22:54;;;;;;;15.17;13.63;;;10.70;99.90;;;;;;5024053;28;20549;-72
2024/03/31 11:25:22;;;;;;;15.63;14.13;;;10.80;99.90;;;;;;5025612;28;20475;-72
2024/03/31 11:27:51;;;;;;;16.37;14.57;;;10.90;99.90;;;;;;5023626;28;20992;-72
2024/03/31 11:30:18;;;;;;;15.43;13.83;;;11.00;99.90;;;;;;5023206;28;20479;-72
2024/03/31 11:32:45;;;;;;;15.03;12.80;;;11.10;99.90;;;;;;5024051;28;20559;-72
2024/03/31 11:35:12;;;;;;;14.43;13.03;;;11.20;99.90;;;;;;5024887;28;20850;-72
2024/03/31 11:37:39;;;;;;;14.73;13.33;;;11.30;99.90;;;;;;5025989;28;20840;-72
2024/03/31 11:40:08;;;;;;;16.30;14.60;;;11.40;99.90;;;;;;5024159;28;20504;-73
2024/03/31 11:42:36;;;;;;;16.50;14.70;;;11.50;99.90;;;;;;5026398;28;20542;-72
2024/03/31 11:45:03;;;;;;;15.00;13.50;;;11.60;99.90;;;;;;5026525;28;20459;-72
2024/03/31 11:47:30;;;;;;;15.53;13.80;;;11.60;99.90;;;;;;5024606;28;20976;-74
2024/03/31 11:49:58;;;;;;;16.70;14.73;;;11.60;99.90;;;;;;5033208;28;20475;-72
2024/03/31 11:52:25;;;;;;;15.67;14.17;;;11.60;99.90;;;;;;5024509;28;20504;-72
2024/03/31 11:54:51;;;;;;;16.23;14.53;;;11.50;99.90;;;;;;5019276;28;20873;-72
2024/03/31 11:57:18;;;;;;;16.60;14.70;;;11.50;99.90;;;;;;5015341;28;20463;-72
2024/03/31 11:59:54;;;;;;;15.93;14.33;;;11.50;99.90;;;;;;5017923;28;20537;-72
2024/03/31 12:02:21;;;;;;;16.00;14.30;;;11.40;99.90;;;;;;5024796;28;20493;-72
2024/03/31 12:04:49;;;;;;;15.87;14.23;;;11.40;99.90;;;;;;5023050;28;20771;-72
2024/03/31 12:07:16;;;;;;;15.77;14.10;;;11.50;99.90;;;;;;5020170;28;20467;-72
2024/03/31 12:09:44;;;;;;;16.10;14.40;;;11.50;99.90;;;;;;5018053;28;20564;-72
2024/03/31 12:12:11;;;;;;;14.53;13.03;;;11.50;99.90;;;;;;5022618;28;20467;-72
2024/03/31 12:14:38;;;;;;;14.77;13.27;;;11.50;99.90;;;;;;5017114;28;20492;-72
2024/03/31 12:17:07;;;;;;;15.13;12.87;;;11.50;99.90;;;;;;5018464;28;20478;-72
2024/03/31 12:19:33;;;;;;;13.80;12.47;;;11.50;99.90;;;;;;5023725;28;20537;-72
2024/03/31 12:22:00;;;;;;;13.90;12.53;;;11.50;99.90;;;;;;5021678;28;20459;-72
2024/03/31 12:24:26;;;;;;;13.13;11.90;;;11.50;99.90;;;;;;5024475;28;20548;-72
2024/03/31 12:26:54;;;;;;;12.17;11.03;;;11.60;99.90;;;;;;5023985;28;21242;-72
2024/03/31 12:29:20;;;;;;;13.60;12.20;;;11.70;99.90;;;;;;5014475;28;20470;-72